Time;durP1;ratioP1;P1;durP2;ratioP2;P2;SDS_P1;SDS_P2;PMS_P1;PMS_P2;Temp;Humidity;BMP_temperature;BMP_pressure;BME280_temperature;BME280_humidity;BME280_pressure;Samples;Min_cycle;Max_cycle;Signal;HPM_P1;HPM_P2
2022/07/25 00:00:23;;;;;;;14.33;13.13;;;23.10;99.90;;;;;;4915787;29;20430;-71
2022/07/25 00:02:49;;;;;;;14.70;13.60;;;23.10;99.90;;;;;;4916094;29;20273;-71
2022/07/25 00:05:14;;;;;;;14.63;13.43;;;23.10;99.90;;;;;;4915910;29;20963;-71
2022/07/25 00:07:40;;;;;;;14.33;13.13;;;23.00;99.90;;;;;;4916574;29;20170;-71
2022/07/25 00:10:07;;;;;;;15.00;13.60;;;23.00;99.90;;;;;;4915591;29;20584;-71
2022/07/25 00:12:32;;;;;;;14.40;13.20;;;23.00;99.90;;;;;;4914656;29;20183;-71
2022/07/25 00:14:58;;;;;;;14.03;12.83;;;23.00;99.90;;;;;;4915902;29;20467;-72
2022/07/25 00:17:24;;;;;;;15.27;13.97;;;22.90;99.90;;;;;;4918662;29;20635;-71
2022/07/25 00:19:50;;;;;;;14.60;13.40;;;23.00;99.90;;;;;;4920208;29;20183;-71
2022/07/25 00:22:15;;;;;;;14.90;13.70;;;22.90;99.90;;;;;;4919325;29;20615;-71
2022/07/25 00:24:41;;;;;;;13.50;12.50;;;22.90;99.90;;;;;;4920099;29;20221;-71
2022/07/25 00:27:07;;;;;;;14.10;12.70;;;22.90;99.90;;;;;;4919549;29;20314;-71
2022/07/25 00:29:32;;;;;;;13.30;12.07;;;23.00;99.90;;;;;;4919729;29;20259;-71
2022/07/25 00:31:58;;;;;;;13.47;12.47;;;22.90;99.90;;;;;;4919446;29;20179;-72
2022/07/25 00:34:24;;;;;;;12.93;11.80;;;22.90;99.90;;;;;;4918654;29;20186;-71
2022/07/25 00:36:50;;;;;;;14.30;13.20;;;22.90;99.90;;;;;;4918586;29;20642;-71
2022/07/25 00:39:15;;;;;;;14.20;13.03;;;22.90;99.90;;;;;;4919216;29;20539;-71
2022/07/25 00:41:43;;;;;;;14.27;13.07;;;22.90;99.90;;;;;;4919386;29;20641;-71
2022/07/25 00:44:09;;;;;;;13.13;11.83;;;22.80;99.90;;;;;;4918778;29;20537;-71
2022/07/25 00:46:38;;;;;;;13.27;12.07;;;22.80;99.90;;;;;;4919529;29;20422;-71
2022/07/25 00:49:03;;;;;;;13.10;12.10;;;22.80;99.90;;;;;;4918508;29;20452;-71
2022/07/25 00:51:29;;;;;;;12.50;11.40;;;22.80;99.90;;;;;;4919661;29;20403;-71
2022/07/25 00:53:56;;;;;;;12.57;11.57;;;22.80;99.90;;;;;;4919565;29;20189;-71
2022/07/25 00:56:23;;;;;;;12.90;11.73;;;22.80;99.90;;;;;;4918955;29;20418;-71
2022/07/25 00:58:49;;;;;;;13.60;12.50;;;22.80;99.90;;;;;;4919238;29;20931;-71
2022/07/25 01:01:14;;;;;;;12.23;11.33;;;22.90;99.90;;;;;;4918132;29;20459;-71
2022/07/25 01:03:40;;;;;;;12.53;11.63;;;22.80;99.90;;;;;;4919018;29;20542;-71
2022/07/25 01:06:07;;;;;;;13.63;12.40;;;22.80;99.90;;;;;;4918835;29;20222;-71
2022/07/25 01:08:32;;;;;;;11.90;10.83;;;22.80;99.90;;;;;;4919355;29;20683;-71
2022/07/25 01:10:58;;;;;;;13.40;12.20;;;22.80;99.90;;;;;;4919303;29;20418;-71
2022/07/25 01:13:24;;;;;;;13.00;11.93;;;22.80;99.90;;;;;;4918746;29;20179;-71
2022/07/25 01:15:50;;;;;;;13.07;11.87;;;22.80;99.90;;;;;;4918764;29;20957;-71
2022/07/25 01:18:16;;;;;;;13.07;11.97;;;22.80;99.90;;;;;;4918538;29;20209;-71
2022/07/25 01:20:42;;;;;;;13.47;12.37;;;22.90;99.90;;;;;;4918017;29;20269;-71
2022/07/25 01:23:07;;;;;;;13.77;12.67;;;22.90;99.90;;;;;;4918468;29;20545;-72
2022/07/25 01:25:33;;;;;;;12.33;11.33;;;22.90;99.90;;;;;;4917807;29;20499;-71
2022/07/25 01:27:59;;;;;;;13.90;12.13;;;22.80;99.90;;;;;;4918909;29;20185;-71
2022/07/25 01:30:25;;;;;;;11.20;10.37;;;22.90;99.90;;;;;;4917907;29;20269;-72
2022/07/25 01:32:52;;;;;;;10.90;10.10;;;22.90;99.90;;;;;;4900099;29;20243;-70
2022/07/25 01:35:17;;;;;;;10.13;9.33;;;22.90;98.10;;;;;;4899075;29;20403;-71
2022/07/25 01:37:43;;;;;;;9.00;8.27;;;22.90;98.00;;;;;;4915816;29;20993;-71
2022/07/25 01:40:09;;;;;;;10.00;9.30;;;23.00;96.90;;;;;;4911153;29;20183;-71
2022/07/25 01:42:35;;;;;;;10.43;9.53;;;23.00;95.20;;;;;;4898318;29;20183;-71
2022/07/25 01:45:03;;;;;;;10.40;9.60;;;23.00;93.40;;;;;;4899986;29;20425;-71
2022/07/25 01:47:29;;;;;;;10.77;9.87;;;23.10;94.50;;;;;;4921837;29;20265;-71
2022/07/25 01:49:54;;;;;;;10.80;10.00;;;23.10;95.20;;;;;;4918560;29;20518;-71
2022/07/25 01:52:20;;;;;;;10.90;10.00;;;23.20;96.40;;;;;;4917316;29;20206;-71
2022/07/25 01:54:46;;;;;;;12.17;11.10;;;23.20;97.30;;;;;;4918291;29;20179;-71
2022/07/25 01:57:12;;;;;;;10.90;10.10;;;23.30;98.10;;;;;;4917471;29;20298;-71
2022/07/25 01:59:39;;;;;;;10.60;9.80;;;23.30;98.10;;;;;;4918354;29;20525;-72
2022/07/25 02:02:06;;;;;;;10.60;9.87;;;23.30;96.00;;;;;;4917845;29;20206;-71
2022/07/25 02:04:33;;;;;;;10.93;9.93;;;23.40;96.70;;;;;;4917899;29;20775;-71
2022/07/25 02:06:58;;;;;;;10.40;9.67;;;23.40;96.10;;;;;;4917652;29;20832;-71
2022/07/25 02:09:24;;;;;;;10.97;10.10;;;23.40;96.20;;;;;;4917959;29;20562;-71
2022/07/25 02:11:50;;;;;;;10.60;9.70;;;23.40;94.90;;;;;;4917901;29;20178;-72
2022/07/25 02:14:15;;;;;;;10.67;9.83;;;23.30;92.90;;;;;;4917447;29;20558;-71
2022/07/25 02:16:41;;;;;;;10.70;9.90;;;23.30;93.90;;;;;;4916237;29;20190;-71
2022/07/25 02:19:07;;;;;;;11.00;10.03;;;23.40;94.90;;;;;;4917445;29;20221;-72
2022/07/25 02:21:33;;;;;;;10.63;9.53;;;23.40;94.50;;;;;;4917448;29;20646;-72
2022/07/25 02:23:58;;;;;;;11.33;10.47;;;23.50;95.60;;;;;;4917091;29;20194;-71
2022/07/25 02:26:24;;;;;;;12.10;11.10;;;23.50;96.00;;;;;;4916843;29;20190;-71
2022/07/25 02:28:50;;;;;;;10.87;10.07;;;23.50;96.80;;;;;;4917883;29;20261;-71
2022/07/25 02:31:16;;;;;;;10.30;9.50;;;23.50;96.60;;;;;;4916676;29;20178;-71
2022/07/25 02:33:43;;;;;;;10.30;9.60;;;23.40;96.30;;;;;;4917814;29;20474;-71
2022/07/25 02:36:10;;;;;;;10.30;9.30;;;23.40;96.40;;;;;;4917145;29;20512;-71
2022/07/25 02:38:36;;;;;;;10.93;10.13;;;23.40;96.60;;;;;;4917256;29;20458;-71
2022/07/25 02:41:02;;;;;;;9.90;9.00;;;23.30;96.50;;;;;;4917274;29;20759;-71
2022/07/25 02:43:27;;;;;;;9.83;9.03;;;23.20;96.50;;;;;;4915824;29;20181;-71
2022/07/25 02:45:53;;;;;;;10.63;9.73;;;23.20;96.50;;;;;;4916408;29;20417;-71
2022/07/25 02:48:19;;;;;;;10.07;9.37;;;23.20;96.60;;;;;;4916368;29;20186;-71
2022/07/25 02:50:44;;;;;;;10.20;9.50;;;23.20;96.90;;;;;;4916883;29;20178;-71
2022/07/25 02:53:10;;;;;;;9.83;9.20;;;23.10;97.00;;;;;;4916261;29;20189;-72
2022/07/25 02:55:36;;;;;;;10.97;9.90;;;23.00;97.00;;;;;;4917233;29;20186;-71
2022/07/25 02:58:02;;;;;;;10.27;9.47;;;23.00;97.00;;;;;;4917317;29;20297;-71
2022/07/25 03:00:29;;;;;;;10.67;9.90;;;22.90;97.00;;;;;;4916740;29;20178;-71
2022/07/25 03:02:55;;;;;;;12.67;11.50;;;23.00;97.00;;;;;;4917300;29;20174;-71
2022/07/25 03:05:21;;;;;;;11.10;10.30;;;22.90;97.30;;;;;;4916216;29;20457;-71
2022/07/25 03:07:46;;;;;;;12.50;11.50;;;22.80;97.50;;;;;;4917411;29;20878;-71
2022/07/25 03:10:13;;;;;;;13.57;12.50;;;22.80;97.90;;;;;;4916156;29;20178;-71
2022/07/25 03:12:39;;;;;;;13.90;12.80;;;22.80;97.60;;;;;;4917145;29;20258;-71
2022/07/25 03:15:06;;;;;;;13.27;12.03;;;22.80;98.70;;;;;;4916797;29;20501;-71
2022/07/25 03:17:32;;;;;;;14.30;13.00;;;22.80;98.50;;;;;;4916150;29;20817;-71
2022/07/25 03:19:57;;;;;;;13.20;12.10;;;22.80;98.40;;;;;;4916626;29;20438;-71
2022/07/25 03:22:24;;;;;;;13.70;12.60;;;22.80;98.90;;;;;;4915188;29;20438;-71
2022/07/25 03:24:50;;;;;;;13.10;12.00;;;22.80;98.80;;;;;;4914998;29;20565;-71
2022/07/25 03:27:16;;;;;;;14.23;13.13;;;22.70;99.30;;;;;;4916292;29;20438;-71
2022/07/25 03:29:42;;;;;;;13.03;11.93;;;22.70;99.10;;;;;;4916871;29;20422;-71
2022/07/25 03:32:08;;;;;;;13.23;12.23;;;22.70;99.30;;;;;;4931493;29;20179;-71
2022/07/25 03:34:35;;;;;;;13.77;12.60;;;22.70;99.40;;;;;;4916892;29;20178;-71
2022/07/25 03:37:01;;;;;;;13.73;12.53;;;22.60;99.90;;;;;;4915572;29;20415;-71
2022/07/25 03:39:27;;;;;;;16.10;14.90;;;22.60;99.70;;;;;;4916092;29;20453;-71
2022/07/25 03:41:54;;;;;;;12.27;11.20;;;22.60;99.90;;;;;;4915985;29;20813;-71
2022/07/25 03:44:21;;;;;;;11.60;10.50;;;22.60;99.90;;;;;;4915834;29;20446;-71
2022/07/25 03:46:47;;;;;;;14.30;13.10;;;22.60;99.90;;;;;;4916613;29;20425;-71
2022/07/25 03:49:13;;;;;;;14.10;13.00;;;22.60;99.90;;;;;;4914825;29;20418;-71
2022/07/25 03:51:38;;;;;;;18.40;16.63;;;22.60;99.90;;;;;;4915980;29;20287;-71
2022/07/25 03:54:05;;;;;;;11.53;10.63;;;22.50;99.90;;;;;;4915896;29;20273;-71
2022/07/25 03:56:31;;;;;;;10.60;9.70;;;22.50;99.70;;;;;;4915449;29;20498;-71
2022/07/25 03:58:58;;;;;;;11.50;10.60;;;22.50;97.80;;;;;;4915276;29;20458;-71
2022/07/25 04:01:23;;;;;;;15.13;14.00;;;22.60;99.20;;;;;;4915581;29;20434;-71
2022/07/25 04:03:49;;;;;;;11.37;10.47;;;22.60;99.60;;;;;;4916444;29;20433;-71
2022/07/25 04:06:15;;;;;;;12.67;11.67;;;22.70;98.50;;;;;;4915955;29;20257;-72
2022/07/25 04:08:41;;;;;;;11.97;10.90;;;22.70;99.30;;;;;;4916424;29;20411;-71
2022/07/25 04:11:06;;;;;;;14.00;13.00;;;22.70;99.00;;;;;;4916427;29;20205;-72
2022/07/25 04:13:32;;;;;;;12.30;11.40;;;22.70;99.00;;;;;;4915796;29;20181;-71
2022/07/25 04:15:58;;;;;;;13.33;12.23;;;22.70;98.60;;;;;;4916383;29;20693;-71
2022/07/25 04:18:23;;;;;;;13.93;12.80;;;22.70;98.30;;;;;;4915495;29;20217;-71
2022/07/25 04:20:49;;;;;;;13.17;12.17;;;22.70;99.50;;;;;;4916031;29;20209;-71
2022/07/25 04:23:15;;;;;;;15.30;13.90;;;22.80;99.50;;;;;;4913840;29;20194;-72
2022/07/25 04:25:41;;;;;;;16.03;14.70;;;22.80;99.40;;;;;;4916328;29;20179;-71
2022/07/25 04:28:06;;;;;;;13.80;12.80;;;22.80;99.60;;;;;;4916359;29;20175;-71
2022/07/25 04:30:32;;;;;;;13.27;12.23;;;22.70;99.70;;;;;;4915377;29;20183;-71
2022/07/25 04:32:58;;;;;;;12.47;11.47;;;22.80;99.30;;;;;;4916323;29;20206;-71
2022/07/25 04:35:23;;;;;;;14.93;13.73;;;22.70;99.10;;;;;;4915571;29;20269;-71
2022/07/25 04:37:49;;;;;;;11.40;10.50;;;22.70;99.50;;;;;;4915403;29;20170;-72
2022/07/25 04:40:15;;;;;;;15.13;14.00;;;22.70;99.60;;;;;;4915396;29;20339;-71
2022/07/25 04:42:41;;;;;;;15.00;13.90;;;22.70;99.90;;;;;;4914389;29;20310;-71
2022/07/25 04:45:07;;;;;;;13.10;12.00;;;22.70;99.90;;;;;;4915959;29;20434;-72
2022/07/25 04:47:33;;;;;;;19.17;17.57;;;22.70;99.90;;;;;;4915458;29;20589;-72
2022/07/25 04:50:00;;;;;;;14.03;12.73;;;22.70;99.90;;;;;;4915639;29;20426;-72
2022/07/25 04:52:26;;;;;;;14.90;13.70;;;22.70;99.90;;;;;;4915443;29;20422;-72
2022/07/25 04:54:52;;;;;;;14.73;13.30;;;22.70;99.90;;;;;;4915771;29;20533;-72
2022/07/25 04:57:18;;;;;;;12.13;11.13;;;22.80;99.90;;;;;;4914883;29;20521;-72
2022/07/25 04:59:43;;;;;;;11.50;10.50;;;22.80;99.90;;;;;;4916001;29;20210;-72
2022/07/25 05:02:09;;;;;;;13.03;11.93;;;22.90;99.90;;;;;;4913648;29;20433;-71
2022/07/25 05:04:35;;;;;;;13.90;12.60;;;23.00;99.90;;;;;;4900036;29;20180;-71
2022/07/25 05:07:01;;;;;;;14.37;12.97;;;23.00;99.90;;;;;;4908872;29;20178;-72
2022/07/25 05:09:27;;;;;;;15.23;13.83;;;23.00;99.90;;;;;;4918346;29;20190;-71
2022/07/25 05:11:53;;;;;;;16.57;15.07;;;23.10;99.90;;;;;;4919393;29;20768;-71
2022/07/25 05:14:18;;;;;;;15.43;13.90;;;23.10;99.90;;;;;;4918630;29;20230;-72
2022/07/25 05:16:44;;;;;;;15.03;13.73;;;23.20;99.90;;;;;;4917855;29;20454;-71
2022/07/25 05:19:10;;;;;;;15.40;13.90;;;23.30;99.90;;;;;;4919148;29;20458;-71
2022/07/25 05:21:37;;;;;;;17.13;15.77;;;23.30;99.90;;;;;;4918583;29;20179;-71
2022/07/25 05:24:03;;;;;;;15.33;13.83;;;23.40;99.90;;;;;;4918390;29;20879;-72
2022/07/25 05:26:29;;;;;;;13.10;11.97;;;23.40;99.90;;;;;;4918472;29;20414;-72
2022/07/25 05:28:55;;;;;;;11.73;10.83;;;23.50;99.40;;;;;;4919012;29;20494;-72
2022/07/25 05:31:21;;;;;;;9.60;8.77;;;23.60;98.60;;;;;;4917961;29;20445;-71
2022/07/25 05:33:47;;;;;;;10.53;9.83;;;23.60;96.90;;;;;;4916562;29;20599;-71
2022/07/25 05:36:13;;;;;;;11.07;10.17;;;23.70;94.30;;;;;;4918532;29;20201;-71
2022/07/25 05:38:39;;;;;;;9.67;8.83;;;23.80;94.10;;;;;;4915999;29;20206;-73
2022/07/25 05:41:04;;;;;;;11.77;10.73;;;23.90;94.00;;;;;;4918164;29;20457;-72
2022/07/25 05:43:30;;;;;;;11.93;9.93;;;24.00;94.20;;;;;;4917431;29;20190;-71
2022/07/25 05:46:01;;;;;;;11.87;10.73;;;24.10;94.90;;;;;;4918020;29;20182;-71
2022/07/25 05:48:26;;;;;;;11.97;10.90;;;24.20;97.50;;;;;;4917478;29;20190;-71
2022/07/25 05:50:52;;;;;;;12.30;11.10;;;24.30;99.90;;;;;;4917632;29;20907;-70
2022/07/25 05:53:18;;;;;;;14.53;13.00;;;24.50;99.90;;;;;;4917347;29;20197;-69
2022/07/25 05:55:44;;;;;;;12.30;11.10;;;24.50;98.70;;;;;;4917092;29;20219;-70
2022/07/25 05:58:09;;;;;;;12.33;10.77;;;24.50;98.40;;;;;;4922232;29;20669;-70
2022/07/25 06:00:36;;;;;;;14.50;12.87;;;24.60;98.50;;;;;;4921516;29;20214;-70
2022/07/25 06:03:02;;;;;;;13.07;11.97;;;24.60;98.90;;;;;;4912552;29;20190;-71
2022/07/25 06:05:27;;;;;;;10.37;9.20;;;24.60;98.80;;;;;;4917728;29;20430;-70
2022/07/25 06:07:53;;;;;;;13.03;11.90;;;24.70;97.90;;;;;;4917800;29;20912;-70
2022/07/25 06:10:19;;;;;;;12.70;11.70;;;24.60;98.30;;;;;;4917304;29;20273;-70
2022/07/25 06:12:45;;;;;;;12.00;11.00;;;24.60;98.90;;;;;;4932123;29;20697;-69
2022/07/25 06:15:11;;;;;;;12.10;11.20;;;24.60;99.10;;;;;;4913657;29;20589;-70
2022/07/25 06:17:36;;;;;;;10.97;9.97;;;24.70;99.60;;;;;;4911633;29;20191;-69
2022/07/25 06:20:03;;;;;;;14.13;13.13;;;24.70;99.70;;;;;;4917552;29;20178;-70
2022/07/25 06:22:29;;;;;;;12.70;11.60;;;24.70;99.10;;;;;;4916086;29;20182;-70
2022/07/25 06:24:55;;;;;;;13.50;12.33;;;24.70;99.30;;;;;;4917060;29;20574;-70
2022/07/25 06:27:21;;;;;;;12.50;11.40;;;24.80;98.80;;;;;;4917030;29;20501;-72
2022/07/25 06:29:46;;;;;;;12.63;11.60;;;24.80;98.70;;;;;;4917072;29;20273;-70
2022/07/25 06:32:12;;;;;;;12.90;12.00;;;24.70;96.40;;;;;;4917548;29;20261;-71
2022/07/25 06:34:38;;;;;;;9.93;9.03;;;24.70;93.60;;;;;;4917168;29;20269;-71
2022/07/25 06:37:04;;;;;;;30.13;27.20;;;24.90;93.50;;;;;;4917644;29;20627;-71
2022/07/25 06:39:29;;;;;;;12.23;11.10;;;25.00;93.60;;;;;;4917145;29;20214;-71
2022/07/25 06:41:57;;;;;;;9.37;8.70;;;25.10;93.10;;;;;;4917612;29;20178;-71
2022/07/25 06:44:22;;;;;;;10.33;9.43;;;25.10;92.00;;;;;;4917149;29;20182;-72
2022/07/25 06:46:48;;;;;;;10.90;9.90;;;25.30;91.60;;;;;;4916326;29;20445;-71
2022/07/25 06:49:14;;;;;;;9.97;9.17;;;25.40;91.50;;;;;;4915888;29;20253;-71
2022/07/25 06:51:40;;;;;;;11.17;10.37;;;25.40;90.90;;;;;;4916185;29;20201;-71
2022/07/25 06:54:05;;;;;;;10.93;10.13;;;25.50;90.70;;;;;;4915490;29;20187;-71
2022/07/25 06:56:31;;;;;;;9.77;9.00;;;25.60;90.30;;;;;;4915184;29;20250;-71
2022/07/25 06:58:58;;;;;;;10.20;9.40;;;25.60;88.40;;;;;;4924159;29;20210;-71
2022/07/25 07:01:24;;;;;;;12.70;11.80;;;25.70;88.70;;;;;;4899043;29;20412;-72
2022/07/25 07:03:49;;;;;;;10.57;9.67;;;25.90;90.00;;;;;;4909282;29;20927;-72
2022/07/25 07:06:15;;;;;;;12.47;11.47;;;25.90;88.80;;;;;;4916271;29;20197;-72
2022/07/25 07:08:41;;;;;;;9.93;9.30;;;25.90;90.90;;;;;;4916656;29;20508;-69
2022/07/25 07:11:07;;;;;;;10.23;9.50;;;26.00;85.70;;;;;;4916524;29;20434;-68
2022/07/25 07:13:33;;;;;;;11.97;11.17;;;26.00;86.00;;;;;;4912497;29;20235;-67
2022/07/25 07:15:59;;;;;;;12.70;11.80;;;26.10;86.60;;;;;;4915521;29;20462;-68
2022/07/25 07:18:25;;;;;;;8.80;8.20;;;26.10;86.00;;;;;;4914614;29;20466;-67
2022/07/25 07:20:51;;;;;;;9.77;9.07;;;26.20;84.10;;;;;;4916626;29;20951;-67
2022/07/25 07:23:17;;;;;;;11.37;10.67;;;26.20;85.10;;;;;;4910747;29;20273;-67
2022/07/25 07:25:45;;;;;;;9.90;9.20;;;26.20;85.20;;;;;;4915818;29;20430;-67
2022/07/25 07:28:11;;;;;;;9.07;8.40;;;26.30;84.30;;;;;;4908701;29;20434;-67
2022/07/25 07:30:37;;;;;;;11.17;10.27;;;26.30;84.80;;;;;;4916010;29;21011;-67
2022/07/25 07:33:03;;;;;;;11.50;10.60;;;26.40;84.80;;;;;;4916925;29;20501;-67
2022/07/25 07:35:29;;;;;;;10.43;9.50;;;26.40;84.70;;;;;;4915728;29;20189;-68
2022/07/25 07:37:54;;;;;;;10.73;9.80;;;26.40;83.80;;;;;;4916596;29;20178;-67
2022/07/25 07:40:21;;;;;;;9.80;9.10;;;26.40;83.70;;;;;;4916605;29;20186;-67
2022/07/25 07:42:49;;;;;;;10.53;9.53;;;26.40;85.00;;;;;;4914874;29;20458;-68
2022/07/25 07:45:17;;;;;;;10.20;9.37;;;26.50;84.30;;;;;;4914877;29;20438;-68
2022/07/25 07:47:46;;;;;;;10.27;9.57;;;26.60;83.70;;;;;;4915660;29;20798;-68
2022/07/25 07:50:13;;;;;;;9.50;8.90;;;26.60;84.20;;;;;;4916584;29;20422;-67
2022/07/25 07:52:39;;;;;;;10.37;9.57;;;26.60;84.10;;;;;;4913544;29;20435;-69
2022/07/25 07:57:49;;;;;;;10.40;9.50;;;26.70;84.60;;;;;;4910033;29;20214;-67
2022/07/25 08:00:16;;;;;;;10.30;9.40;;;26.70;85.20;;;;;;4915498;29;20430;-67
2022/07/25 08:02:46;;;;;;;10.93;10.00;;;26.70;84.20;;;;;;4915370;29;20253;-67
2022/07/25 08:05:18;;;;;;;10.40;9.60;;;26.70;85.10;;;;;;4908781;29;20434;-67
2022/07/25 08:07:44;;;;;;;11.73;10.93;;;26.70;83.80;;;;;;4915059;29;20498;-67
2022/07/25 08:10:09;;;;;;;10.10;9.40;;;26.80;84.70;;;;;;4915546;29;20906;-67
2022/07/25 08:12:40;;;;;;;10.80;9.80;;;26.90;85.10;;;;;;4900796;29;20282;-67
2022/07/25 08:15:06;;;;;;;10.20;9.40;;;27.00;85.00;;;;;;4910893;29;20222;-68
2022/07/25 08:17:31;;;;;;;11.37;10.40;;;27.10;85.10;;;;;;4913150;29;20434;-67
2022/07/25 08:19:57;;;;;;;11.17;10.37;;;27.20;86.10;;;;;;4914862;29;20561;-67
2022/07/25 08:22:23;;;;;;;9.40;8.70;;;27.30;84.30;;;;;;4916559;29;20179;-67
2022/07/25 08:24:49;;;;;;;9.80;9.10;;;27.40;84.30;;;;;;4915499;29;20203;-67
2022/07/25 08:27:14;;;;;;;10.33;9.33;;;27.50;84.30;;;;;;4914726;29;20194;-67
2022/07/25 08:29:40;;;;;;;10.33;9.53;;;27.70;85.20;;;;;;4913915;29;20182;-67
2022/07/25 08:32:06;;;;;;;9.83;9.10;;;27.80;83.50;;;;;;4915333;29;20239;-67
2022/07/25 08:34:32;;;;;;;10.67;9.87;;;27.90;84.70;;;;;;4914574;29;20202;-68
2022/07/25 08:36:58;;;;;;;10.90;10.07;;;28.10;81.20;;;;;;4915856;29;20423;-67
2022/07/25 08:39:24;;;;;;;10.30;9.60;;;28.20;81.90;;;;;;4919737;29;20232;-67
2022/07/25 08:41:50;;;;;;;11.20;10.40;;;28.40;79.50;;;;;;4918655;29;20642;-67
2022/07/25 08:44:17;;;;;;;10.17;9.27;;;28.50;80.20;;;;;;4918561;29;20194;-69
2022/07/25 08:46:44;;;;;;;9.60;9.00;;;28.50;81.00;;;;;;4918686;29;20250;-67
2022/07/25 08:49:10;;;;;;;10.93;10.23;;;28.70;79.00;;;;;;4934096;29;20496;-67
2022/07/25 08:51:37;;;;;;;11.80;11.00;;;28.70;77.30;;;;;;4917447;29;20858;-67
2022/07/25 08:54:04;;;;;;;10.07;9.30;;;28.80;77.00;;;;;;4917033;29;20503;-66
2022/07/25 08:56:30;;;;;;;9.97;9.10;;;28.90;78.20;;;;;;4916450;29;20464;-67
2022/07/25 08:58:57;;;;;;;9.17;8.47;;;28.90;78.10;;;;;;4919436;29;20509;-67
2022/07/25 09:01:23;;;;;;;9.67;8.87;;;29.00;75.80;;;;;;4919115;29;20646;-66
2022/07/25 09:03:49;;;;;;;10.10;9.37;;;29.00;76.40;;;;;;4918822;29;20414;-67
2022/07/25 09:06:20;;;;;;;11.20;10.40;;;29.00;76.10;;;;;;4919251;29;20194;-67
2022/07/25 09:08:57;;;;;;;10.97;10.07;;;29.00;76.60;;;;;;4918313;29;20182;-67
2022/07/25 09:11:34;;;;;;;11.07;10.27;;;29.00;75.90;;;;;;4919281;29;20875;-67
2022/07/25 09:14:09;;;;;;;16.57;15.37;;;29.00;77.30;;;;;;4918313;29;20433;-67
2022/07/25 09:16:37;;;;;;;11.40;10.23;;;29.00;77.20;;;;;;4914502;29;20875;-67
2022/07/25 09:19:15;;;;;;;10.27;9.37;;;29.00;76.30;;;;;;4917096;29;21017;-68
2022/07/25 09:21:43;;;;;;;12.37;11.53;;;28.90;75.20;;;;;;4915591;29;20501;-67
2022/07/25 09:24:16;;;;;;;12.13;11.17;;;28.90;75.90;;;;;;4918006;29;20438;-67
2022/07/25 09:26:47;;;;;;;10.33;9.53;;;28.90;76.30;;;;;;4917306;29;20438;-67
2022/07/25 09:29:26;;;;;;;9.90;9.27;;;28.90;75.30;;;;;;4919051;29;20434;-67
2022/07/25 09:31:54;;;;;;;10.10;9.40;;;28.90;78.00;;;;;;4918177;29;20505;-67
2022/07/25 09:34:36;;;;;;;10.60;9.83;;;29.00;77.90;;;;;;4919162;29;20418;-67
2022/07/25 09:37:08;;;;;;;11.43;10.40;;;29.00;76.80;;;;;;4918809;29;20459;-67
2022/07/25 09:39:35;;;;;;;10.70;10.00;;;29.00;76.60;;;;;;4917933;29;20477;-67
2022/07/25 09:42:01;;;;;;;13.30;12.50;;;29.00;77.10;;;;;;4918652;29;20426;-67
2022/07/25 09:44:29;;;;;;;10.43;9.33;;;29.00;78.20;;;;;;4917133;29;20490;-67
2022/07/25 09:46:59;;;;;;;14.00;10.00;;;29.00;79.90;;;;;;4918389;29;20977;-67
2022/07/25 09:49:40;;;;;;;13.10;12.23;;;29.10;79.00;;;;;;4916502;29;20450;-68
2022/07/25 09:52:05;;;;;;;11.03;10.23;;;29.30;76.70;;;;;;4918135;29;20415;-67
2022/07/25 09:54:32;;;;;;;10.83;10.03;;;29.40;76.70;;;;;;4917882;29;20752;-69
2022/07/25 09:56:57;;;;;;;11.33;10.43;;;29.60;77.40;;;;;;4917190;29;20182;-67
2022/07/25 09:59:23;;;;;;;12.10;11.30;;;29.80;75.00;;;;;;4918385;29;20458;-67
2022/07/25 10:02:09;;;;;;;11.30;10.50;;;30.00;76.10;;;;;;4916576;29;20190;-67
2022/07/25 10:05:04;;;;;;;10.40;9.60;;;30.10;71.90;;;;;;4917828;29;20627;-67
2022/07/25 10:07:32;;;;;;;10.87;9.97;;;30.30;73.30;;;;;;4911276;29;20446;-67
2022/07/25 10:10:28;;;;;;;10.90;10.10;;;30.40;72.50;;;;;;4916124;29;20415;-67
2022/07/25 10:13:09;;;;;;;10.87;10.10;;;30.40;70.50;;;;;;4913913;29;20954;-67
2022/07/25 10:15:52;;;;;;;10.43;9.63;;;30.30;69.80;;;;;;4914920;29;20466;-67
2022/07/25 10:18:26;;;;;;;10.27;9.47;;;30.30;70.10;;;;;;4915723;29;20505;-67
2022/07/25 10:21:10;;;;;;;10.53;9.77;;;30.20;70.00;;;;;;4915141;29;20433;-67
2022/07/25 10:23:36;;;;;;;11.93;11.13;;;30.20;71.10;;;;;;4915219;29;20395;-67
2022/07/25 10:26:14;;;;;;;10.47;9.67;;;30.30;71.30;;;;;;4915689;29;20423;-67
2022/07/25 10:28:43;;;;;;;11.30;10.60;;;30.10;70.50;;;;;;4915304;29;20797;-67
2022/07/25 10:31:21;;;;;;;10.63;9.83;;;30.10;70.10;;;;;;4915907;29;20426;-67
2022/07/25 10:33:56;;;;;;;10.93;10.03;;;30.00;71.40;;;;;;4915235;29;20407;-67
2022/07/25 10:36:23;;;;;;;11.57;10.67;;;29.80;70.30;;;;;;4915486;29;20426;-67
2022/07/25 10:38:56;;;;;;;10.43;9.70;;;29.70;72.00;;;;;;4914773;29;20818;-67
2022/07/25 10:41:25;;;;;;;10.57;9.67;;;29.50;71.70;;;;;;4915907;29;20442;-67
2022/07/25 10:43:51;;;;;;;10.07;9.27;;;29.30;72.00;;;;;;4898164;29;20814;-67
2022/07/25 10:46:25;;;;;;;9.77;8.97;;;29.20;73.60;;;;;;4917558;29;20418;-67
2022/07/25 10:49:02;;;;;;;9.37;8.53;;;29.10;74.30;;;;;;4916940;29;20422;-67
2022/07/25 10:51:31;;;;;;;12.37;11.57;;;28.90;73.30;;;;;;4917512;29;20394;-67
2022/07/25 10:53:57;;;;;;;10.00;9.30;;;28.80;73.80;;;;;;4916820;29;20414;-67
2022/07/25 10:56:26;;;;;;;11.53;10.83;;;28.70;73.70;;;;;;4916143;29;20419;-67
2022/07/25 10:58:56;;;;;;;10.20;9.40;;;28.60;75.20;;;;;;4915985;29;20462;-67
2022/07/25 11:01:30;;;;;;;9.60;8.97;;;28.50;74.30;;;;;;4916905;29;20498;-67
2022/07/25 11:04:04;;;;;;;10.67;9.70;;;28.50;75.40;;;;;;4916315;29;20937;-67
2022/07/25 11:06:38;;;;;;;10.20;9.40;;;28.40;74.70;;;;;;4917293;29;20406;-67
2022/07/25 11:09:14;;;;;;;10.23;9.40;;;28.30;75.10;;;;;;4917364;29;20430;-67
2022/07/25 11:11:46;;;;;;;11.03;10.17;;;28.20;76.30;;;;;;4916617;29;20426;-67
2022/07/25 11:14:31;;;;;;;10.20;9.40;;;28.20;77.10;;;;;;4915708;29;20501;-67
2022/07/25 11:17:07;;;;;;;9.97;9.17;;;28.10;77.20;;;;;;4916177;29;20434;-67
2022/07/25 11:19:33;;;;;;;10.43;9.63;;;28.10;78.40;;;;;;4917034;29;20516;-67
2022/07/25 11:22:03;;;;;;;11.50;10.70;;;28.20;77.50;;;;;;4916410;29;20494;-67
2022/07/25 11:24:42;;;;;;;10.30;9.43;;;28.30;80.30;;;;;;4916689;29;20190;-67
2022/07/25 11:27:19;;;;;;;10.00;9.30;;;28.50;76.50;;;;;;4917071;29;20462;-67
2022/07/25 11:29:45;;;;;;;10.43;9.53;;;28.70;77.70;;;;;;4915637;29;20763;-67
2022/07/25 11:32:12;;;;;;;11.70;10.57;;;28.90;76.40;;;;;;4916938;29;20425;-67
2022/07/25 11:34:45;;;;;;;10.77;9.97;;;29.10;76.80;;;;;;4916239;29;20261;-72
2022/07/25 11:37:13;;;;;;;11.27;10.37;;;29.30;76.80;;;;;;4914841;29;20485;-67
2022/07/25 11:39:40;;;;;;;11.47;10.57;;;29.50;76.50;;;;;;4916091;29;20454;-68
2022/07/25 11:42:15;;;;;;;11.47;10.53;;;29.60;75.60;;;;;;4916399;29;20501;-67
2022/07/25 11:44:49;;;;;;;11.60;10.70;;;29.70;74.00;;;;;;4915843;29;20433;-67
2022/07/25 11:47:30;;;;;;;11.67;10.87;;;29.60;74.10;;;;;;4916699;29;20423;-67
2022/07/25 11:49:58;;;;;;;11.50;10.63;;;29.40;73.10;;;;;;4916035;29;20419;-67
2022/07/25 11:52:28;;;;;;;12.40;11.63;;;29.30;73.80;;;;;;4916292;29;20786;-68
2022/07/25 11:55:00;;;;;;;11.00;10.10;;;29.30;75.50;;;;;;4916028;29;20820;-67
2022/07/25 11:57:31;;;;;;;11.17;10.20;;;29.30;76.30;;;;;;4916444;29;20501;-67
2022/07/25 11:59:59;;;;;;;10.83;10.13;;;29.20;75.80;;;;;;4915107;29;20526;-67
2022/07/25 12:02:32;;;;;;;11.83;10.77;;;29.10;76.30;;;;;;4916383;29;20422;-67
2022/07/25 12:05:01;;;;;;;12.23;11.23;;;29.10;77.80;;;;;;4915848;29;20755;-67
2022/07/25 12:07:44;;;;;;;11.67;10.77;;;29.10;76.40;;;;;;4916676;29;20415;-67
2022/07/25 12:10:31;;;;;;;11.70;10.60;;;29.20;77.40;;;;;;4916348;29;20437;-67
2022/07/25 12:12:58;;;;;;;11.67;10.87;;;29.30;77.10;;;;;;4917449;29;20449;-68
2022/07/25 12:15:29;;;;;;;11.60;10.80;;;29.40;78.80;;;;;;4920208;29;20462;-67
2022/07/25 12:17:56;;;;;;;10.33;9.63;;;29.60;76.90;;;;;;4919634;29;20406;-67
2022/07/25 12:20:31;;;;;;;11.07;10.17;;;29.70;75.80;;;;;;4920174;29;20423;-67
2022/07/25 12:23:10;;;;;;;9.87;8.80;;;29.90;76.70;;;;;;4919821;29;20429;-67
2022/07/25 12:25:38;;;;;;;10.57;9.70;;;29.90;74.30;;;;;;4920405;29;20399;-67
2022/07/25 12:28:04;;;;;;;10.67;9.83;;;29.90;73.60;;;;;;4918767;29;20902;-67
2022/07/25 12:30:31;;;;;;;10.33;9.63;;;29.90;74.20;;;;;;4919681;29;20875;-67
2022/07/25 12:32:58;;;;;;;12.00;10.90;;;29.90;74.70;;;;;;4919277;29;20768;-67
2022/07/25 12:35:24;;;;;;;10.17;9.17;;;29.80;75.50;;;;;;4919751;29;20414;-67